sensor_id;sensor_type;location;lat;lon;timestamp;temperature;humidity
65854;DHT22;52627;48.838;2.402;2023-05-23T00:01:04;17.75;66.76
65854;DHT22;52627;48.838;2.402;2023-05-23T00:03:35;17.72;66.87
65854;DHT22;52627;48.838;2.402;2023-05-23T00:06:04;17.69;66.91
65854;DHT22;52627;48.838;2.402;2023-05-23T00:08:33;17.64;66.93
65854;DHT22;52627;48.838;2.402;2023-05-23T00:11:01;17.61;67.00
65854;DHT22;52627;48.838;2.402;2023-05-23T00:13:28;17.59;67.00
65854;DHT22;52627;48.838;2.402;2023-05-23T00:15:56;17.58;67.02
65854;DHT22;52627;48.838;2.402;2023-05-23T00:18:23;17.56;67.06
65854;DHT22;52627;48.838;2.402;2023-05-23T00:20:51;17.53;67.09
65854;DHT22;52627;48.838;2.402;2023-05-23T00:23:19;17.54;67.09
65854;DHT22;52627;48.838;2.402;2023-05-23T00:25:47;17.52;67.12
65854;DHT22;52627;48.838;2.402;2023-05-23T00:28:19;17.51;67.16
65854;DHT22;52627;48.838;2.402;2023-05-23T00:30:47;17.50;67.14
65854;DHT22;52627;48.838;2.402;2023-05-23T00:33:15;17.48;67.14
65854;DHT22;52627;48.838;2.402;2023-05-23T00:35:43;17.48;67.12
65854;DHT22;52627;48.838;2.402;2023-05-23T00:38:11;17.48;67.19
65854;DHT22;52627;48.838;2.402;2023-05-23T00:40:39;17.46;67.18
65854;DHT22;52627;48.838;2.402;2023-05-23T00:43:06;17.43;67.13
65854;DHT22;52627;48.838;2.402;2023-05-23T00:45:34;17.42;67.12
65854;DHT22;52627;48.838;2.402;2023-05-23T00:48:02;17.39;67.12
65854;DHT22;52627;48.838;2.402;2023-05-23T00:50:31;17.35;67.20
65854;DHT22;52627;48.838;2.402;2023-05-23T00:52:59;17.31;67.22
65854;DHT22;52627;48.838;2.402;2023-05-23T00:55:28;17.29;67.30
65854;DHT22;52627;48.838;2.402;2023-05-23T00:57:56;17.25;67.30
65854;DHT22;52627;48.838;2.402;2023-05-23T01:00:25;17.22;67.33
65854;DHT22;52627;48.838;2.402;2023-05-23T01:02:55;17.22;67.30
65854;DHT22;52627;48.838;2.402;2023-05-23T01:05:22;17.19;67.30
65854;DHT22;52627;48.838;2.402;2023-05-23T01:07:51;17.17;67.30
65854;DHT22;52627;48.838;2.402;2023-05-23T01:10:20;17.16;67.34
65854;DHT22;52627;48.838;2.402;2023-05-23T01:15:28;17.13;67.30
65854;DHT22;52627;48.838;2.402;2023-05-23T01:18:09;17.11;67.30
65854;DHT22;52627;48.838;2.402;2023-05-23T01:20:48;17.09;67.29
65854;DHT22;52627;48.838;2.402;2023-05-23T01:23:24;17.05;67.27
65854;DHT22;52627;48.838;2.402;2023-05-23T01:28:54;16.99;67.23
65854;DHT22;52627;48.838;2.402;2023-05-23T01:31:31;16.97;67.24
65854;DHT22;52627;48.838;2.402;2023-05-23T01:34:03;16.93;67.24
65854;DHT22;52627;48.838;2.402;2023-05-23T01:36:34;16.91;67.26
65854;DHT22;52627;48.838;2.402;2023-05-23T01:39:08;16.89;67.28
65854;DHT22;52627;48.838;2.402;2023-05-23T01:41:37;16.85;67.29
65854;DHT22;52627;48.838;2.402;2023-05-23T01:44:04;16.82;67.30
65854;DHT22;52627;48.838;2.402;2023-05-23T01:46:32;16.79;67.33
65854;DHT22;52627;48.838;2.402;2023-05-23T01:49:01;16.77;67.37
65854;DHT22;52627;48.838;2.402;2023-05-23T01:51:30;16.74;67.40
65854;DHT22;52627;48.838;2.402;2023-05-23T01:54:00;16.74;67.40
65854;DHT22;52627;48.838;2.402;2023-05-23T01:56:27;16.72;67.48
65854;DHT22;52627;48.838;2.402;2023-05-23T01:58:56;16.69;67.57
65854;DHT22;52627;48.838;2.402;2023-05-23T02:01:24;16.66;67.59
65854;DHT22;52627;48.838;2.402;2023-05-23T02:03:52;16.65;67.61
65854;DHT22;52627;48.838;2.402;2023-05-23T02:06:19;16.64;67.65
65854;DHT22;52627;48.838;2.402;2023-05-23T02:08:47;16.64;67.70
65854;DHT22;52627;48.838;2.402;2023-05-23T02:11:14;16.62;67.74
65854;DHT22;52627;48.838;2.402;2023-05-23T02:13:42;16.58;67.80
65854;DHT22;52627;48.838;2.402;2023-05-23T02:16:09;16.54;67.81
65854;DHT22;52627;48.838;2.402;2023-05-23T02:18:37;16.52;67.79
65854;DHT22;52627;48.838;2.402;2023-05-23T02:21:05;16.50;67.79
65854;DHT22;52627;48.838;2.402;2023-05-23T02:23:33;16.50;67.80
65854;DHT22;52627;48.838;2.402;2023-05-23T02:26:00;16.48;67.82
65854;DHT22;52627;48.838;2.402;2023-05-23T02:28:28;16.46;67.90
65854;DHT22;52627;48.838;2.402;2023-05-23T02:30:55;16.46;67.98
65854;DHT22;52627;48.838;2.402;2023-05-23T02:33:23;16.45;68.04
65854;DHT22;52627;48.838;2.402;2023-05-23T02:35:51;16.42;68.14
65854;DHT22;52627;48.838;2.402;2023-05-23T02:38:18;16.38;68.21
65854;DHT22;52627;48.838;2.402;2023-05-23T02:40:46;16.35;68.32
65854;DHT22;52627;48.838;2.402;2023-05-23T02:43:16;16.31;68.42
65854;DHT22;52627;48.838;2.402;2023-05-23T02:45:44;16.28;68.50
65854;DHT22;52627;48.838;2.402;2023-05-23T02:48:11;16.25;68.66
65854;DHT22;52627;48.838;2.402;2023-05-23T02:50:39;16.23;68.70
65854;DHT22;52627;48.838;2.402;2023-05-23T02:53:06;16.24;68.74
65854;DHT22;52627;48.838;2.402;2023-05-23T02:55:34;16.23;68.80
65854;DHT22;52627;48.838;2.402;2023-05-23T02:58:02;16.22;68.84
65854;DHT22;52627;48.838;2.402;2023-05-23T03:00:31;16.19;68.95
65854;DHT22;52627;48.838;2.402;2023-05-23T03:02:59;16.17;69.00
65854;DHT22;52627;48.838;2.402;2023-05-23T03:05:26;16.16;69.07
65854;DHT22;52627;48.838;2.402;2023-05-23T03:07:54;16.16;69.10
65854;DHT22;52627;48.838;2.402;2023-05-23T03:10:22;16.15;69.19
65854;DHT22;52627;48.838;2.402;2023-05-23T03:12:49;16.13;69.26
65854;DHT22;52627;48.838;2.402;2023-05-23T03:15:19;16.08;69.30
65854;DHT22;52627;48.838;2.402;2023-05-23T03:17:47;16.05;69.35
65854;DHT22;52627;48.838;2.402;2023-05-23T03:20:14;16.02;69.39
65854;DHT22;52627;48.838;2.402;2023-05-23T03:22:42;16.02;69.39
65854;DHT22;52627;48.838;2.402;2023-05-23T03:25:13;16.00;69.43
65854;DHT22;52627;48.838;2.402;2023-05-23T03:27:43;15.98;69.50
65854;DHT22;52627;48.838;2.402;2023-05-23T03:30:11;15.96;69.57
65854;DHT22;52627;48.838;2.402;2023-05-23T03:32:39;15.89;69.69
65854;DHT22;52627;48.838;2.402;2023-05-23T03:35:07;15.81;69.74
65854;DHT22;52627;48.838;2.402;2023-05-23T03:37:35;15.75;69.85
65854;DHT22;52627;48.838;2.402;2023-05-23T03:40:03;15.72;69.93
65854;DHT22;52627;48.838;2.402;2023-05-23T03:42:35;15.68;69.98
65854;DHT22;52627;48.838;2.402;2023-05-23T03:45:05;15.64;70.02
65854;DHT22;52627;48.838;2.402;2023-05-23T03:47:33;15.62;70.07
65854;DHT22;52627;48.838;2.402;2023-05-23T03:50:01;15.61;70.10
65854;DHT22;52627;48.838;2.402;2023-05-23T03:52:28;15.59;70.13
65854;DHT22;52627;48.838;2.402;2023-05-23T03:54:56;15.58;70.17
65854;DHT22;52627;48.838;2.402;2023-05-23T03:57:24;15.55;70.20
65854;DHT22;52627;48.838;2.402;2023-05-23T03:59:51;15.52;70.26
65854;DHT22;52627;48.838;2.402;2023-05-23T04:02:19;15.45;70.37
65854;DHT22;52627;48.838;2.402;2023-05-23T04:04:48;15.40;70.44
65854;DHT22;52627;48.838;2.402;2023-05-23T04:07:16;15.36;70.53
65854;DHT22;52627;48.838;2.402;2023-05-23T04:09:43;15.34;70.60
65854;DHT22;52627;48.838;2.402;2023-05-23T04:12:11;15.33;70.71
65854;DHT22;52627;48.838;2.402;2023-05-23T04:14:38;15.29;70.82
65854;DHT22;52627;48.838;2.402;2023-05-23T04:17:06;15.27;70.92
65854;DHT22;52627;48.838;2.402;2023-05-23T04:19:35;15.26;70.91
65854;DHT22;52627;48.838;2.402;2023-05-23T04:22:03;15.26;70.90
65854;DHT22;52627;48.838;2.402;2023-05-23T04:24:31;15.24;70.90
65854;DHT22;52627;48.838;2.402;2023-05-23T04:26:58;15.22;71.04
65854;DHT22;52627;48.838;2.402;2023-05-23T04:29:26;15.18;71.15
65854;DHT22;52627;48.838;2.402;2023-05-23T04:31:57;15.16;71.22
65854;DHT22;52627;48.838;2.402;2023-05-23T04:34:25;15.13;71.27
65854;DHT22;52627;48.838;2.402;2023-05-23T04:36:53;15.12;71.28
65854;DHT22;52627;48.838;2.402;2023-05-23T04:39:20;15.10;71.33
65854;DHT22;52627;48.838;2.402;2023-05-23T04:41:48;15.08;71.30
65854;DHT22;52627;48.838;2.402;2023-05-23T04:44:16;15.08;71.34
65854;DHT22;52627;48.838;2.402;2023-05-23T04:46:44;15.08;71.43
65854;DHT22;52627;48.838;2.402;2023-05-23T04:49:12;15.09;71.51
65854;DHT22;52627;48.838;2.402;2023-05-23T04:51:40;15.07;71.59
65854;DHT22;52627;48.838;2.402;2023-05-23T04:54:08;15.06;71.61
65854;DHT22;52627;48.838;2.402;2023-05-23T04:56:35;15.07;71.72
65854;DHT22;52627;48.838;2.402;2023-05-23T04:59:03;15.06;71.77
65854;DHT22;52627;48.838;2.402;2023-05-23T05:01:30;15.05;71.89
65854;DHT22;52627;48.838;2.402;2023-05-23T05:03:58;15.05;72.01
65854;DHT22;52627;48.838;2.402;2023-05-23T05:06:26;15.06;72.09
65854;DHT22;52627;48.838;2.402;2023-05-23T05:08:54;15.06;72.12
65854;DHT22;52627;48.838;2.402;2023-05-23T05:11:22;15.06;72.14
65854;DHT22;52627;48.838;2.402;2023-05-23T05:13:49;15.06;72.22
65854;DHT22;52627;48.838;2.402;2023-05-23T05:16:17;15.07;72.29
65854;DHT22;52627;48.838;2.402;2023-05-23T05:18:44;15.07;72.30
65854;DHT22;52627;48.838;2.402;2023-05-23T05:21:12;15.05;72.32
65854;DHT22;52627;48.838;2.402;2023-05-23T05:23:40;15.06;72.40
65854;DHT22;52627;48.838;2.402;2023-05-23T05:26:08;15.06;72.48
65854;DHT22;52627;48.838;2.402;2023-05-23T05:28:35;15.03;72.51
65854;DHT22;52627;48.838;2.402;2023-05-23T05:31:04;15.02;72.53
65854;DHT22;52627;48.838;2.402;2023-05-23T05:33:32;15.02;72.61
65854;DHT22;52627;48.838;2.402;2023-05-23T05:36:05;15.04;72.65
65854;DHT22;52627;48.838;2.402;2023-05-23T05:38:33;15.06;72.68
65854;DHT22;52627;48.838;2.402;2023-05-23T05:41:00;15.10;72.69
65854;DHT22;52627;48.838;2.402;2023-05-23T05:43:28;15.10;72.72
65854;DHT22;52627;48.838;2.402;2023-05-23T05:45:55;15.12;72.78
65854;DHT22;52627;48.838;2.402;2023-05-23T05:48:23;15.08;72.79
65854;DHT22;52627;48.838;2.402;2023-05-23T05:50:50;15.08;72.80
65854;DHT22;52627;48.838;2.402;2023-05-23T05:53:18;15.11;72.80
65854;DHT22;52627;48.838;2.402;2023-05-23T05:55:45;15.13;72.80
65854;DHT22;52627;48.838;2.402;2023-05-23T05:58:12;15.14;72.86
65854;DHT22;52627;48.838;2.402;2023-05-23T06:00:40;15.20;72.86
65854;DHT22;52627;48.838;2.402;2023-05-23T06:03:09;15.22;72.88
65854;DHT22;52627;48.838;2.402;2023-05-23T06:05:37;15.23;72.80
65854;DHT22;52627;48.838;2.402;2023-05-23T06:08:05;15.25;72.81
65854;DHT22;52627;48.838;2.402;2023-05-23T06:10:33;15.26;72.85
65854;DHT22;52627;48.838;2.402;2023-05-23T06:13:03;15.28;72.89
65854;DHT22;52627;48.838;2.402;2023-05-23T06:15:31;15.30;72.89
65854;DHT22;52627;48.838;2.402;2023-05-23T06:17:58;15.33;72.89
65854;DHT22;52627;48.838;2.402;2023-05-23T06:20:26;15.35;72.83
65854;DHT22;52627;48.838;2.402;2023-05-23T06:22:54;15.38;72.80
65854;DHT22;52627;48.838;2.402;2023-05-23T06:25:22;15.39;72.88
65854;DHT22;52627;48.838;2.402;2023-05-23T06:27:49;15.41;72.88
65854;DHT22;52627;48.838;2.402;2023-05-23T06:30:17;15.41;72.90
65854;DHT22;52627;48.838;2.402;2023-05-23T06:32:44;15.41;72.90
65854;DHT22;52627;48.838;2.402;2023-05-23T06:35:12;15.44;72.90
65854;DHT22;52627;48.838;2.402;2023-05-23T06:37:39;15.44;72.90
65854;DHT22;52627;48.838;2.402;2023-05-23T06:40:11;15.48;72.95
65854;DHT22;52627;48.838;2.402;2023-05-23T06:42:40;15.49;72.98
65854;DHT22;52627;48.838;2.402;2023-05-23T06:45:08;15.51;72.99
65854;DHT22;52627;48.838;2.402;2023-05-23T06:47:36;15.50;72.99
65854;DHT22;52627;48.838;2.402;2023-05-23T06:50:04;15.52;73.00
65854;DHT22;52627;48.838;2.402;2023-05-23T06:52:32;15.52;72.93
65854;DHT22;52627;48.838;2.402;2023-05-23T06:55:00;15.52;72.90
65854;DHT22;52627;48.838;2.402;2023-05-23T06:57:28;15.52;72.90
65854;DHT22;52627;48.838;2.402;2023-05-23T06:59:55;15.53;72.88
65854;DHT22;52627;48.838;2.402;2023-05-23T07:02:23;15.54;72.80
65854;DHT22;52627;48.838;2.402;2023-05-23T07:04:50;15.55;72.81
65854;DHT22;52627;48.838;2.402;2023-05-23T07:07:18;15.57;72.80
65854;DHT22;52627;48.838;2.402;2023-05-23T07:09:45;15.59;72.72
65854;DHT22;52627;48.838;2.402;2023-05-23T07:12:13;15.60;72.74
65854;DHT22;52627;48.838;2.402;2023-05-23T07:14:40;15.60;72.74
65854;DHT22;52627;48.838;2.402;2023-05-23T07:17:08;15.59;72.78
65854;DHT22;52627;48.838;2.402;2023-05-23T07:19:36;15.59;72.80
65854;DHT22;52627;48.838;2.402;2023-05-23T07:22:04;15.59;72.84
65854;DHT22;52627;48.838;2.402;2023-05-23T07:24:31;15.60;72.90
65854;DHT22;52627;48.838;2.402;2023-05-23T07:26:59;15.60;72.96
65854;DHT22;52627;48.838;2.402;2023-05-23T07:29:26;15.61;72.90
65854;DHT22;52627;48.838;2.402;2023-05-23T07:31:54;15.62;72.90
65854;DHT22;52627;48.838;2.402;2023-05-23T07:34:22;15.65;72.90
65854;DHT22;52627;48.838;2.402;2023-05-23T07:36:50;15.67;72.88
65854;DHT22;52627;48.838;2.402;2023-05-23T07:39:17;15.71;72.90
65854;DHT22;52627;48.838;2.402;2023-05-23T07:41:48;15.73;72.91
65854;DHT22;52627;48.838;2.402;2023-05-23T07:44:17;15.76;72.90
65854;DHT22;52627;48.838;2.402;2023-05-23T07:46:50;15.78;72.90
65854;DHT22;52627;48.838;2.402;2023-05-23T07:49:18;15.81;72.83
65854;DHT22;52627;48.838;2.402;2023-05-23T07:51:46;15.84;72.80
65854;DHT22;52627;48.838;2.402;2023-05-23T07:54:13;15.85;72.74
65854;DHT22;52627;48.838;2.402;2023-05-23T07:56:42;15.90;72.70
65854;DHT22;52627;48.838;2.402;2023-05-23T07:59:10;15.96;72.64
65854;DHT22;52627;48.838;2.402;2023-05-23T08:01:38;16.00;72.51
65854;DHT22;52627;48.838;2.402;2023-05-23T08:04:06;16.01;72.49
65854;DHT22;52627;48.838;2.402;2023-05-23T08:06:34;16.04;72.46
65854;DHT22;52627;48.838;2.402;2023-05-23T08:09:01;16.08;72.40
65854;DHT22;52627;48.838;2.402;2023-05-23T08:11:29;16.10;72.35
65854;DHT22;52627;48.838;2.402;2023-05-23T08:13:56;16.13;72.32
65854;DHT22;52627;48.838;2.402;2023-05-23T08:16:27;16.16;72.30
65854;DHT22;52627;48.838;2.402;2023-05-23T08:18:55;16.19;72.29
65854;DHT22;52627;48.838;2.402;2023-05-23T08:21:22;16.20;72.20
65854;DHT22;52627;48.838;2.402;2023-05-23T08:23:50;16.22;72.19
65854;DHT22;52627;48.838;2.402;2023-05-23T08:26:18;16.21;72.10
65854;DHT22;52627;48.838;2.402;2023-05-23T08:28:45;16.21;72.04
65854;DHT22;52627;48.838;2.402;2023-05-23T08:31:13;16.24;72.04
65854;DHT22;52627;48.838;2.402;2023-05-23T08:33:41;16.27;71.97
65854;DHT22;52627;48.838;2.402;2023-05-23T08:36:09;16.30;71.89
65854;DHT22;52627;48.838;2.402;2023-05-23T08:38:37;16.34;71.82
65854;DHT22;52627;48.838;2.402;2023-05-23T08:41:04;16.39;71.75
65854;DHT22;52627;48.838;2.402;2023-05-23T08:43:46;16.45;71.58
65854;DHT22;52627;48.838;2.402;2023-05-23T08:46:14;16.50;71.46
65854;DHT22;52627;48.838;2.402;2023-05-23T08:48:42;16.56;71.34
65854;DHT22;52627;48.838;2.402;2023-05-23T08:51:17;16.60;71.20
65854;DHT22;52627;48.838;2.402;2023-05-23T08:53:47;16.66;71.14
65854;DHT22;52627;48.838;2.402;2023-05-23T08:56:19;16.73;71.10
65854;DHT22;52627;48.838;2.402;2023-05-23T08:58:46;16.80;71.00
65854;DHT22;52627;48.838;2.402;2023-05-23T09:01:14;16.86;70.87
65854;DHT22;52627;48.838;2.402;2023-05-23T09:03:44;16.90;70.74
65854;DHT22;52627;48.838;2.402;2023-05-23T09:06:12;16.94;70.67
65854;DHT22;52627;48.838;2.402;2023-05-23T09:08:39;16.96;70.58
65854;DHT22;52627;48.838;2.402;2023-05-23T09:11:08;16.97;70.59
65854;DHT22;52627;48.838;2.402;2023-05-23T09:13:39;16.95;70.54
65854;DHT22;52627;48.838;2.402;2023-05-23T09:16:10;16.94;70.56
65854;DHT22;52627;48.838;2.402;2023-05-23T09:18:39;16.95;70.50
65854;DHT22;52627;48.838;2.402;2023-05-23T09:21:09;16.93;70.53
65854;DHT22;52627;48.838;2.402;2023-05-23T09:23:38;16.92;70.58
65854;DHT22;52627;48.838;2.402;2023-05-23T09:26:08;16.93;70.59
65854;DHT22;52627;48.838;2.402;2023-05-23T09:28:37;16.90;70.59
65854;DHT22;52627;48.838;2.402;2023-05-23T09:31:07;16.89;70.67
65854;DHT22;52627;48.838;2.402;2023-05-23T09:33:41;16.88;70.80
65854;DHT22;52627;48.838;2.402;2023-05-23T09:36:16;16.87;70.80
65854;DHT22;52627;48.838;2.402;2023-05-23T09:38:45;16.87;70.87
65854;DHT22;52627;48.838;2.402;2023-05-23T09:41:19;16.86;70.91
65854;DHT22;52627;48.838;2.402;2023-05-23T09:43:51;16.86;70.88
65854;DHT22;52627;48.838;2.402;2023-05-23T09:46:20;16.89;70.83
65854;DHT22;52627;48.838;2.402;2023-05-23T09:48:54;16.91;70.76
65854;DHT22;52627;48.838;2.402;2023-05-23T09:51:23;16.94;70.63
65854;DHT22;52627;48.838;2.402;2023-05-23T09:53:50;17.00;70.60
65854;DHT22;52627;48.838;2.402;2023-05-23T09:56:19;17.06;70.45
65854;DHT22;52627;48.838;2.402;2023-05-23T09:58:50;17.05;70.36
65854;DHT22;52627;48.838;2.402;2023-05-23T10:01:23;17.05;70.31
65854;DHT22;52627;48.838;2.402;2023-05-23T10:03:53;17.06;70.27
65854;DHT22;52627;48.838;2.402;2023-05-23T10:09:03;17.29;69.99
65854;DHT22;52627;48.838;2.402;2023-05-23T10:14:09;17.55;69.56
65854;DHT22;52627;48.838;2.402;2023-05-23T10:16:43;17.63;69.33
65854;DHT22;52627;48.838;2.402;2023-05-23T10:22:14;17.63;68.77
65854;DHT22;52627;48.838;2.402;2023-05-23T10:24:43;17.62;68.54
65854;DHT22;52627;48.838;2.402;2023-05-23T10:27:12;17.60;68.35
65854;DHT22;52627;48.838;2.402;2023-05-23T10:29:40;17.61;68.18
65854;DHT22;52627;48.838;2.402;2023-05-23T10:32:09;17.60;67.91
65854;DHT22;52627;48.838;2.402;2023-05-23T10:43:28;17.58;67.34
65854;DHT22;52627;48.838;2.402;2023-05-23T10:46:07;17.50;67.30
65854;DHT22;52627;48.838;2.402;2023-05-23T10:48:42;17.45;67.25
65854;DHT22;52627;48.838;2.402;2023-05-23T10:51:11;17.41;67.20
65854;DHT22;52627;48.838;2.402;2023-05-23T10:53:42;17.41;67.17
65854;DHT22;52627;48.838;2.402;2023-05-23T10:56:18;17.45;67.12
65854;DHT22;52627;48.838;2.402;2023-05-23T10:58:53;17.51;67.08
65854;DHT22;52627;48.838;2.402;2023-05-23T11:01:22;17.57;66.99
65854;DHT22;52627;48.838;2.402;2023-05-23T11:03:51;17.63;66.93
65854;DHT22;52627;48.838;2.402;2023-05-23T11:06:38;17.71;66.86
65854;DHT22;52627;48.838;2.402;2023-05-23T11:09:15;17.78;66.70
65854;DHT22;52627;48.838;2.402;2023-05-23T11:11:58;17.88;66.63
65854;DHT22;52627;48.838;2.402;2023-05-23T11:16:59;18.08;66.34
65854;DHT22;52627;48.838;2.402;2023-05-23T11:22:34;18.36;66.00
65854;DHT22;52627;48.838;2.402;2023-05-23T11:25:06;18.39;65.84
65854;DHT22;52627;48.838;2.402;2023-05-23T11:27:39;18.40;65.63
65854;DHT22;52627;48.838;2.402;2023-05-23T11:30:09;18.38;65.41
65854;DHT22;52627;48.838;2.402;2023-05-23T11:32:49;18.37;65.29
65854;DHT22;52627;48.838;2.402;2023-05-23T11:35:20;18.37;65.08
65854;DHT22;52627;48.838;2.402;2023-05-23T11:37:48;18.39;64.92
65854;DHT22;52627;48.838;2.402;2023-05-23T11:43:04;18.54;64.60
65854;DHT22;52627;48.838;2.402;2023-05-23T11:45:36;18.70;64.37
65854;DHT22;52627;48.838;2.402;2023-05-23T11:48:08;18.85;64.19
65854;DHT22;52627;48.838;2.402;2023-05-23T11:50:50;19.02;63.80
65854;DHT22;52627;48.838;2.402;2023-05-23T11:53:20;19.20;63.44
65854;DHT22;52627;48.838;2.402;2023-05-23T11:55:57;19.38;62.91
65854;DHT22;52627;48.838;2.402;2023-05-23T11:58:35;19.49;62.49
65854;DHT22;52627;48.838;2.402;2023-05-23T12:01:06;19.77;62.11
65854;DHT22;52627;48.838;2.402;2023-05-23T12:03:45;20.23;61.68
65854;DHT22;52627;48.838;2.402;2023-05-23T12:06:18;20.70;61.28
65854;DHT22;52627;48.838;2.402;2023-05-23T12:08:47;21.15;60.79
65854;DHT22;52627;48.838;2.402;2023-05-23T12:11:14;21.58;60.09
65854;DHT22;52627;48.838;2.402;2023-05-23T12:13:42;21.84;59.37
65854;DHT22;52627;48.838;2.402;2023-05-23T12:16:12;22.04;58.78
65854;DHT22;52627;48.838;2.402;2023-05-23T12:18:42;21.93;57.36
65854;DHT22;52627;48.838;2.402;2023-05-23T12:21:09;21.73;57.31
65854;DHT22;52627;48.838;2.402;2023-05-23T12:23:38;21.64;57.10
65854;DHT22;52627;48.838;2.402;2023-05-23T12:26:06;21.59;56.94
65854;DHT22;52627;48.838;2.402;2023-05-23T12:28:35;21.71;56.69
65854;DHT22;52627;48.838;2.402;2023-05-23T12:31:12;21.98;56.25
65854;DHT22;52627;48.838;2.402;2023-05-23T12:33:44;21.94;55.48
65854;DHT22;52627;48.838;2.402;2023-05-23T12:36:15;21.96;55.29
65854;DHT22;52627;48.838;2.402;2023-05-23T12:38:50;22.22;55.00
65854;DHT22;52627;48.838;2.402;2023-05-23T12:41:18;22.55;54.43
65854;DHT22;52627;48.838;2.402;2023-05-23T12:43:49;22.83;54.13
65854;DHT22;52627;48.838;2.402;2023-05-23T12:46:21;23.18;53.79
65854;DHT22;52627;48.838;2.402;2023-05-23T12:48:52;23.40;53.31
65854;DHT22;52627;48.838;2.402;2023-05-23T12:51:20;23.52;53.04
65854;DHT22;52627;48.838;2.402;2023-05-23T12:53:48;23.57;52.51
65854;DHT22;52627;48.838;2.402;2023-05-23T12:56:19;23.55;52.18
65854;DHT22;52627;48.838;2.402;2023-05-23T12:58:47;23.61;51.97
65854;DHT22;52627;48.838;2.402;2023-05-23T13:01:15;23.59;51.38
65854;DHT22;52627;48.838;2.402;2023-05-23T13:03:43;23.51;51.17
65854;DHT22;52627;48.838;2.402;2023-05-23T13:06:10;23.51;50.72
65854;DHT22;52627;48.838;2.402;2023-05-23T13:08:38;23.49;50.47
65854;DHT22;52627;48.838;2.402;2023-05-23T13:11:05;23.59;49.75
65854;DHT22;52627;48.838;2.402;2023-05-23T13:13:33;23.84;49.30
65854;DHT22;52627;48.838;2.402;2023-05-23T13:16:00;24.07;48.84
65854;DHT22;52627;48.838;2.402;2023-05-23T13:18:27;24.29;48.39
65854;DHT22;52627;48.838;2.402;2023-05-23T13:20:55;24.58;48.04
65854;DHT22;52627;48.838;2.402;2023-05-23T13:23:23;24.81;47.33
65854;DHT22;52627;48.838;2.402;2023-05-23T13:25:52;24.92;46.97
65854;DHT22;52627;48.838;2.402;2023-05-23T13:28:19;25.10;46.70
65854;DHT22;52627;48.838;2.402;2023-05-23T13:30:47;25.17;46.38
65854;DHT22;52627;48.838;2.402;2023-05-23T13:33:15;25.08;46.00
65854;DHT22;52627;48.838;2.402;2023-05-23T13:35:43;25.08;45.62
65854;DHT22;52627;48.838;2.402;2023-05-23T13:38:11;25.31;45.12
65854;DHT22;52627;48.838;2.402;2023-05-23T13:40:38;25.51;44.67
65854;DHT22;52627;48.838;2.402;2023-05-23T13:43:06;25.60;44.43
65854;DHT22;52627;48.838;2.402;2023-05-23T13:45:34;25.94;43.97
65854;DHT22;52627;48.838;2.402;2023-05-23T13:48:01;26.27;43.63
65854;DHT22;52627;48.838;2.402;2023-05-23T13:50:29;26.50;42.77
65854;DHT22;52627;48.838;2.402;2023-05-23T13:52:57;26.49;42.48
65854;DHT22;52627;48.838;2.402;2023-05-23T13:55:25;26.34;42.26
65854;DHT22;52627;48.838;2.402;2023-05-23T13:57:56;26.10;42.17
65854;DHT22;52627;48.838;2.402;2023-05-23T14:00:23;25.90;41.83
65854;DHT22;52627;48.838;2.402;2023-05-23T14:02:51;25.67;41.80
65854;DHT22;52627;48.838;2.402;2023-05-23T14:05:19;25.50;41.59
65854;DHT22;52627;48.838;2.402;2023-05-23T14:07:46;25.31;41.57
65854;DHT22;52627;48.838;2.402;2023-05-23T14:10:14;25.13;41.65
65854;DHT22;52627;48.838;2.402;2023-05-23T14:12:45;24.97;41.66
65854;DHT22;52627;48.838;2.402;2023-05-23T14:15:12;24.81;41.84
65854;DHT22;52627;48.838;2.402;2023-05-23T14:17:40;24.68;41.95
65854;DHT22;52627;48.838;2.402;2023-05-23T14:20:08;24.59;42.11
65854;DHT22;52627;48.838;2.402;2023-05-23T14:22:36;24.49;42.23
65854;DHT22;52627;48.838;2.402;2023-05-23T14:25:04;24.35;42.36
65854;DHT22;52627;48.838;2.402;2023-05-23T14:27:32;24.21;42.47
65854;DHT22;52627;48.838;2.402;2023-05-23T14:30:01;24.11;42.60
65854;DHT22;52627;48.838;2.402;2023-05-23T14:32:28;24.01;42.75
65854;DHT22;52627;48.838;2.402;2023-05-23T14:34:59;23.89;42.86
65854;DHT22;52627;48.838;2.402;2023-05-23T14:37:26;23.80;42.91
65854;DHT22;52627;48.838;2.402;2023-05-23T14:39:54;23.76;43.03
65854;DHT22;52627;48.838;2.402;2023-05-23T14:42:21;23.74;43.15
65854;DHT22;52627;48.838;2.402;2023-05-23T14:44:49;23.71;43.19
65854;DHT22;52627;48.838;2.402;2023-05-23T14:47:19;23.64;43.22
65854;DHT22;52627;48.838;2.402;2023-05-23T14:49:47;23.60;43.34
65854;DHT22;52627;48.838;2.402;2023-05-23T14:52:15;23.53;43.37
65854;DHT22;52627;48.838;2.402;2023-05-23T14:54:43;23.43;43.49
65854;DHT22;52627;48.838;2.402;2023-05-23T14:57:11;23.38;43.58
65854;DHT22;52627;48.838;2.402;2023-05-23T14:59:38;23.28;43.62
65854;DHT22;52627;48.838;2.402;2023-05-23T15:02:06;23.14;43.71
65854;DHT22;52627;48.838;2.402;2023-05-23T15:04:34;22.97;43.71
65854;DHT22;52627;48.838;2.402;2023-05-23T15:07:02;22.82;43.78
65854;DHT22;52627;48.838;2.402;2023-05-23T15:09:30;22.75;43.85
65854;DHT22;52627;48.838;2.402;2023-05-23T15:11:58;22.72;43.90
65854;DHT22;52627;48.838;2.402;2023-05-23T15:14:25;22.68;43.91
65854;DHT22;52627;48.838;2.402;2023-05-23T15:16:58;22.66;43.93
65854;DHT22;52627;48.838;2.402;2023-05-23T15:19:36;22.62;44.08
65854;DHT22;52627;48.838;2.402;2023-05-23T15:22:05;22.58;44.24
65854;DHT22;52627;48.838;2.402;2023-05-23T15:24:34;22.45;44.39
65854;DHT22;52627;48.838;2.402;2023-05-23T15:27:05;22.37;44.54
65854;DHT22;52627;48.838;2.402;2023-05-23T15:29:46;22.37;44.71
65854;DHT22;52627;48.838;2.402;2023-05-23T15:32:14;22.34;44.80
65854;DHT22;52627;48.838;2.402;2023-05-23T15:34:42;22.31;44.84
65854;DHT22;52627;48.838;2.402;2023-05-23T15:37:10;22.23;44.96
65854;DHT22;52627;48.838;2.402;2023-05-23T15:39:37;22.16;44.98
65854;DHT22;52627;48.838;2.402;2023-05-23T15:42:05;22.08;45.00
65854;DHT22;52627;48.838;2.402;2023-05-23T15:44:32;22.07;45.02
65854;DHT22;52627;48.838;2.402;2023-05-23T15:47:00;22.01;45.04
65854;DHT22;52627;48.838;2.402;2023-05-23T15:49:27;21.99;45.03
65854;DHT22;52627;48.838;2.402;2023-05-23T15:51:55;21.93;45.09
65854;DHT22;52627;48.838;2.402;2023-05-23T15:54:22;21.91;45.07
65854;DHT22;52627;48.838;2.402;2023-05-23T15:56:49;21.87;45.08
65854;DHT22;52627;48.838;2.402;2023-05-23T15:59:17;21.85;45.03
65854;DHT22;52627;48.838;2.402;2023-05-23T16:01:44;21.83;45.08
65854;DHT22;52627;48.838;2.402;2023-05-23T16:04:12;21.79;45.07
65854;DHT22;52627;48.838;2.402;2023-05-23T16:06:39;21.68;44.99
65854;DHT22;52627;48.838;2.402;2023-05-23T16:09:07;21.59;45.00
65854;DHT22;52627;48.838;2.402;2023-05-23T16:11:35;21.50;45.02